createdAt,value
2022-11-24T00:01:16.694Z,100.00
2022-11-24T00:03:51.918Z,100.00
2022-11-24T00:06:18.589Z,100.00
2022-11-24T00:08:46.224Z,100.00
2022-11-24T00:11:16.054Z,100.00
2022-11-24T00:13:43.499Z,100.00
2022-11-24T00:16:19.181Z,99.73
2022-11-24T00:18:48.016Z,99.38
2022-11-24T00:21:16.554Z,99.05
2022-11-24T00:23:43.500Z,97.98
2022-11-24T00:26:09.945Z,97.00
2022-11-24T00:28:37.562Z,95.76
2022-11-24T00:31:05.975Z,95.22
2022-11-24T00:33:32.596Z,95.60
2022-11-24T00:36:00.598Z,95.42
2022-11-24T00:38:27.163Z,95.01
2022-11-24T00:40:53.742Z,95.03
2022-11-24T00:43:20.400Z,95.25
2022-11-24T00:45:47.105Z,95.75
2022-11-24T00:48:13.997Z,96.16
2022-11-24T00:50:40.562Z,96.45
2022-11-24T00:53:07.034Z,96.59
2022-11-24T00:55:33.666Z,97.11
2022-11-24T00:58:00.296Z,97.38
2022-11-24T01:00:26.964Z,97.54
2022-11-24T01:02:53.651Z,97.92
2022-11-24T01:05:20.519Z,97.92
2022-11-24T01:07:47.514Z,98.09
2022-11-24T01:10:14.291Z,98.02
2022-11-24T01:12:40.869Z,98.27
2022-11-24T01:15:07.840Z,98.69
2022-11-24T01:17:34.482Z,99.04
2022-11-24T01:20:00.950Z,99.14
2022-11-24T01:22:27.456Z,99.13
2022-11-24T01:24:53.964Z,99.40
2022-11-24T01:27:20.540Z,99.17
2022-11-24T01:29:47.002Z,98.55
2022-11-24T01:32:13.498Z,98.89
2022-11-24T01:34:39.972Z,98.34
2022-11-24T01:37:06.424Z,98.79
2022-11-24T01:39:32.952Z,98.17
2022-11-24T01:42:02.511Z,98.79
2022-11-24T01:44:31.249Z,98.51
2022-11-24T01:47:02.516Z,98.42
2022-11-24T01:49:53.406Z,98.82
2022-11-24T01:52:26.884Z,98.20
2022-11-24T01:54:56.307Z,97.93
2022-11-24T01:57:27.232Z,98.16
2022-11-24T01:59:59.923Z,98.42
2022-11-24T02:02:29.744Z,97.47
2022-11-24T02:05:05.598Z,97.72
2022-11-24T02:07:33.155Z,97.88
2022-11-24T02:10:04.736Z,98.10
2022-11-24T02:12:31.932Z,97.76
2022-11-24T02:14:59.309Z,97.94
2022-11-24T02:17:25.893Z,97.42
2022-11-24T02:20:01.046Z,97.88
2022-11-24T02:22:45.839Z,97.32
2022-11-24T02:25:31.143Z,97.98
2022-11-24T02:28:00.095Z,97.25
2022-11-24T02:30:26.875Z,97.64
2022-11-24T02:32:53.901Z,97.47
2022-11-24T02:35:20.506Z,97.36
2022-11-24T02:37:47.011Z,97.44
2022-11-24T02:40:20.651Z,97.80
2022-11-24T02:42:47.576Z,97.67
2022-11-24T02:45:16.344Z,97.83
2022-11-24T02:47:43.150Z,97.91
2022-11-24T02:50:09.893Z,97.89
2022-11-24T02:52:38.621Z,97.32
2022-11-24T02:55:05.627Z,96.96
2022-11-24T02:57:32.445Z,97.33
2022-11-24T02:59:59.082Z,96.84
2022-11-24T03:02:25.657Z,97.22
2022-11-24T03:04:52.242Z,96.96
2022-11-24T03:07:19.178Z,97.17
2022-11-24T03:09:45.707Z,97.37
2022-11-24T03:12:12.210Z,97.30
2022-11-24T03:14:38.718Z,97.13
2022-11-24T03:17:05.378Z,96.89
2022-11-24T03:19:31.967Z,97.24
2022-11-24T03:21:58.946Z,96.89
2022-11-24T03:24:25.601Z,97.16
2022-11-24T03:26:52.182Z,96.96
2022-11-24T03:29:18.727Z,97.63
2022-11-24T03:31:45.395Z,96.92
2022-11-24T03:34:11.940Z,96.99
2022-11-24T03:36:38.442Z,97.29
2022-11-24T03:39:05.733Z,97.08
2022-11-24T03:41:32.225Z,97.09
2022-11-24T03:43:58.863Z,97.14
2022-11-24T03:46:25.432Z,97.06
2022-11-24T03:48:52.015Z,97.41
2022-11-24T03:51:18.543Z,97.56
2022-11-24T03:53:45.074Z,97.76
2022-11-24T03:56:11.644Z,97.80
2022-11-24T03:58:38.139Z,97.90
2022-11-24T04:01:04.686Z,97.02
2022-11-24T04:03:31.267Z,96.71
2022-11-24T04:05:57.767Z,96.85
2022-11-24T04:08:24.303Z,96.40
2022-11-24T04:10:54.542Z,96.46
2022-11-24T04:13:23.473Z,95.71
2022-11-24T04:15:50.697Z,95.42
2022-11-24T04:18:17.259Z,95.89
2022-11-24T04:20:44.221Z,95.62
2022-11-24T04:23:11.757Z,95.62
2022-11-24T04:25:38.551Z,95.16
2022-11-24T04:28:05.026Z,94.00
2022-11-24T04:30:31.890Z,94.31
2022-11-24T04:32:58.463Z,94.63
2022-11-24T04:35:25.036Z,95.10
2022-11-24T04:37:53.084Z,95.51
2022-11-24T04:40:20.246Z,95.46
2022-11-24T04:42:54.831Z,95.58
2022-11-24T04:45:22.402Z,95.97
2022-11-24T04:47:48.830Z,95.77
2022-11-24T04:50:15.746Z,96.78
2022-11-24T04:52:43.243Z,96.25
2022-11-24T04:55:10.303Z,96.47
2022-11-24T04:57:37.150Z,96.43
2022-11-24T05:00:04.136Z,96.71
2022-11-24T05:02:30.737Z,97.07
2022-11-24T05:04:57.207Z,96.48
2022-11-24T05:07:23.719Z,97.26
2022-11-24T05:10:08.805Z,96.72
2022-11-24T05:12:35.255Z,97.53
2022-11-24T05:15:05.759Z,97.14
2022-11-24T05:17:34.654Z,97.24
2022-11-24T05:20:01.410Z,97.61
2022-11-24T05:22:31.739Z,97.80
2022-11-24T05:24:58.279Z,97.93
2022-11-24T05:27:25.192Z,98.23
2022-11-24T05:29:55.628Z,98.46
2022-11-24T05:32:23.812Z,98.09
2022-11-24T05:34:50.645Z,98.27
2022-11-24T05:37:18.666Z,97.62
2022-11-24T05:39:45.834Z,96.77
2022-11-24T05:42:31.574Z,95.64
2022-11-24T05:45:00.492Z,94.14
2022-11-24T05:47:28.591Z,93.69
2022-11-24T05:49:55.391Z,94.14
2022-11-24T05:52:22.366Z,94.10
2022-11-24T05:54:51.227Z,94.06
2022-11-24T05:57:18.258Z,94.04
2022-11-24T05:59:45.706Z,94.66
2022-11-24T06:02:12.565Z,94.46
2022-11-24T06:04:44.543Z,95.71
2022-11-24T06:07:13.165Z,96.06
2022-11-24T06:09:41.364Z,95.92
2022-11-24T06:12:08.600Z,95.91
2022-11-24T06:14:35.531Z,95.70
2022-11-24T06:17:02.257Z,95.82
2022-11-24T06:19:28.813Z,96.21
2022-11-24T06:21:55.294Z,96.21
2022-11-24T06:24:21.731Z,96.97
2022-11-24T06:26:48.174Z,96.97
2022-11-24T06:29:14.761Z,97.15
2022-11-24T06:31:44.148Z,97.08
2022-11-24T06:34:12.133Z,98.06
2022-11-24T06:36:39.376Z,97.41
2022-11-24T06:39:06.652Z,97.12
2022-11-24T06:41:34.665Z,98.17
2022-11-24T06:44:03.770Z,98.36
2022-11-24T06:46:30.247Z,98.62
2022-11-24T06:48:56.769Z,98.07
2022-11-24T06:51:23.248Z,98.80
2022-11-24T06:53:49.659Z,99.27
2022-11-24T06:56:19.613Z,99.76
2022-11-24T06:58:48.808Z,99.94
2022-11-24T07:01:23.378Z,100.00
2022-11-24T07:03:51.346Z,100.00
2022-11-24T07:06:19.797Z,100.00
2022-11-24T07:08:46.769Z,100.00
2022-11-24T07:11:15.912Z,100.00
2022-11-24T07:13:43.129Z,100.00
2022-11-24T07:16:24.729Z,100.00
2022-11-24T07:18:53.048Z,100.00
2022-11-24T07:21:21.412Z,100.00
2022-11-24T07:23:49.640Z,100.00
2022-11-24T07:26:16.488Z,100.00
2022-11-24T07:28:42.985Z,100.00
2022-11-24T07:31:14.728Z,100.00
2022-11-24T07:33:41.692Z,100.00
2022-11-24T07:36:09.000Z,100.00
2022-11-24T07:38:36.153Z,100.00
2022-11-24T07:41:10.382Z,100.00
2022-11-24T07:43:40.305Z,100.00
2022-11-24T07:46:10.931Z,100.00
2022-11-24T07:48:37.493Z,100.00
2022-11-24T07:51:05.632Z,100.00
2022-11-24T07:53:33.395Z,100.00
2022-11-24T07:56:02.366Z,100.00
2022-11-24T07:58:32.937Z,100.00
2022-11-24T08:00:59.997Z,100.00
2022-11-24T08:03:26.581Z,100.00
2022-11-24T08:06:22.370Z,100.00
2022-11-24T08:08:41.494Z,100.00
2022-11-24T08:11:10.663Z,100.00
2022-11-24T08:13:37.613Z,100.00
2022-11-24T08:16:18.770Z,100.00
2022-11-24T08:18:51.193Z,100.00
2022-11-24T08:21:17.783Z,100.00
2022-11-24T08:23:44.325Z,100.00
2022-11-24T08:26:17.784Z,100.00
2022-11-24T08:28:45.860Z,100.00
2022-11-24T08:31:15.212Z,100.00
2022-11-24T08:33:42.661Z,100.00
2022-11-24T08:36:14.320Z,100.00
2022-11-24T08:38:41.120Z,100.00
2022-11-24T08:41:10.878Z,100.00
2022-11-24T08:43:37.619Z,100.00
2022-11-24T08:46:17.083Z,100.00
2022-11-24T08:48:47.483Z,100.00
2022-11-24T08:51:16.274Z,100.00
2022-11-24T08:53:43.711Z,100.00
2022-11-24T08:56:11.648Z,100.00
2022-11-24T08:58:39.238Z,100.00
2022-11-24T09:01:11.331Z,100.00
2022-11-24T09:03:42.197Z,100.00
2022-11-24T09:06:11.372Z,100.00
2022-11-24T09:08:38.530Z,100.00
2022-11-24T09:11:07.907Z,100.00
2022-11-24T09:13:34.791Z,100.00
2022-11-24T09:16:09.027Z,100.00
2022-11-24T09:18:36.029Z,100.00
2022-11-24T09:21:10.157Z,100.00
2022-11-24T09:23:37.177Z,100.00
2022-11-24T09:26:09.544Z,100.00
2022-11-24T09:28:36.262Z,100.00
2022-11-24T09:31:04.654Z,100.00
2022-11-24T09:33:32.248Z,100.00
2022-11-24T09:35:59.050Z,100.00
2022-11-24T09:38:25.795Z,100.00
2022-11-24T09:40:56.019Z,100.00
2022-11-24T09:43:30.426Z,100.00
2022-11-24T09:46:11.786Z,100.00
2022-11-24T09:48:42.377Z,100.00
2022-11-24T09:51:14.873Z,100.00
2022-11-24T09:53:47.133Z,99.78
2022-11-24T09:56:21.903Z,100.00
2022-11-24T09:58:54.234Z,99.54
2022-11-24T10:01:26.151Z,99.62
2022-11-24T10:03:53.914Z,98.95
2022-11-24T10:06:45.283Z,99.48
2022-11-24T10:09:45.631Z,99.71
2022-11-24T10:12:36.618Z,99.36
2022-11-24T10:15:30.107Z,99.26
2022-11-24T10:18:02.866Z,99.27
2022-11-24T10:21:02.656Z,99.37
2022-11-24T10:24:20.656Z,99.39
2022-11-24T10:27:11.577Z,99.15
2022-11-24T10:29:40.898Z,99.29
2022-11-24T10:32:33.508Z,98.90
2022-11-24T10:35:14.465Z,98.26
2022-11-24T10:37:47.184Z,98.33
2022-11-24T10:40:55.377Z,98.13
2022-11-24T10:43:11.513Z,97.77
2022-11-24T10:45:40.002Z,97.60
2022-11-24T10:48:18.224Z,97.10
2022-11-24T10:50:45.149Z,97.45
2022-11-24T10:53:21.229Z,96.84
2022-11-24T10:55:58.192Z,96.66
2022-11-24T10:58:37.974Z,96.39
2022-11-24T11:01:14.259Z,96.95
2022-11-24T11:03:56.222Z,96.33
2022-11-24T11:06:24.627Z,95.78
2022-11-24T11:09:17.704Z,95.42
2022-11-24T11:11:50.215Z,95.13
2022-11-24T11:14:31.651Z,95.28
2022-11-24T11:16:58.463Z,95.15
2022-11-24T11:19:48.954Z,95.15
2022-11-24T11:22:26.699Z,94.90
2022-11-24T11:25:36.142Z,94.07
2022-11-24T11:28:29.517Z,93.82
2022-11-24T11:31:22.491Z,93.61
2022-11-24T11:34:06.342Z,94.07
2022-11-24T11:36:46.231Z,93.93
2022-11-24T11:39:37.218Z,93.24
2022-11-24T11:45:28.688Z,93.05
2022-11-24T11:47:58.986Z,92.10
2022-11-24T11:51:14.964Z,92.26
2022-11-24T11:53:52.310Z,92.87
2022-11-24T11:56:25.109Z,92.92
2022-11-24T11:59:27.107Z,92.63
2022-11-24T12:02:35.457Z,91.75
2022-11-24T12:05:11.818Z,92.02
2022-11-24T12:07:56.941Z,91.71
2022-11-24T12:10:27.409Z,91.69
2022-11-24T12:13:12.153Z,91.37
2022-11-24T12:15:49.785Z,91.54
2022-11-24T12:18:58.197Z,90.64
2022-11-24T12:21:36.280Z,90.22
2022-11-24T12:24:18.844Z,90.86
2022-11-24T12:26:49.205Z,90.04
2022-11-24T12:29:34.174Z,90.15
2022-11-24T12:32:22.439Z,90.16
2022-11-24T12:35:17.873Z,89.48
2022-11-24T12:37:53.385Z,89.28
2022-11-24T12:40:28.656Z,89.22
2022-11-24T12:43:16.884Z,89.22
2022-11-24T12:45:51.418Z,89.80
2022-11-24T12:48:49.488Z,89.18
2022-11-24T12:51:18.991Z,89.16
2022-11-24T12:53:48.112Z,89.51
2022-11-24T12:56:17.364Z,89.70
2022-11-24T12:59:00.480Z,89.45
2022-11-24T13:01:46.419Z,89.68
2022-11-24T13:04:39.260Z,90.21
2022-11-24T13:07:12.031Z,89.59
2022-11-24T13:09:58.490Z,89.52
2022-11-24T13:12:25.059Z,88.86
2022-11-24T13:14:51.574Z,89.73
2022-11-24T13:17:38.266Z,89.53
2022-11-24T13:20:19.370Z,88.93
2022-11-24T13:22:52.796Z,89.33
2022-11-24T13:25:21.434Z,89.67
2022-11-24T13:27:52.839Z,89.33
2022-11-24T13:30:34.484Z,89.52
2022-11-24T13:33:16.916Z,89.52
2022-11-24T13:36:01.626Z,89.27
2022-11-24T13:38:42.022Z,89.24
2022-11-24T13:41:27.569Z,89.47
2022-11-24T13:44:13.510Z,88.83
2022-11-24T13:47:05.769Z,88.71
2022-11-24T13:49:41.213Z,88.65
2022-11-24T13:52:35.757Z,88.35
2022-11-24T13:55:21.427Z,88.59
2022-11-24T13:57:54.003Z,88.89
2022-11-24T14:00:33.888Z,88.95
2022-11-24T14:03:06.239Z,88.69
2022-11-24T14:05:41.055Z,88.46
2022-11-24T14:08:16.621Z,89.29
2022-11-24T14:10:43.211Z,89.09
2022-11-24T14:13:16.945Z,89.05
2022-11-24T14:15:43.511Z,89.24
2022-11-24T14:18:20.844Z,89.45
2022-11-24T14:20:47.463Z,89.51
2022-11-24T14:23:14.100Z,89.38
2022-11-24T14:25:40.669Z,89.21
2022-11-24T14:28:27.618Z,89.87
2022-11-24T14:31:20.762Z,89.84
2022-11-24T14:33:47.471Z,89.59
2022-11-24T14:36:15.607Z,89.98
2022-11-24T14:38:43.053Z,89.92
2022-11-24T14:41:26.191Z,89.67
2022-11-24T14:44:07.258Z,90.00
2022-11-24T14:46:36.285Z,89.62
2022-11-24T14:49:03.439Z,90.04
2022-11-24T14:51:35.822Z,90.47
2022-11-24T14:54:05.685Z,90.42
2022-11-24T14:56:35.389Z,90.95
2022-11-24T14:59:03.114Z,90.89
2022-11-24T15:01:31.433Z,90.44
2022-11-24T15:07:23.749Z,91.12
2022-11-24T15:09:53.582Z,90.75
2022-11-24T15:12:30.667Z,91.08
2022-11-24T15:15:06.203Z,90.92
2022-11-24T15:17:33.595Z,91.28
2022-11-24T15:20:10.689Z,90.91
2022-11-24T15:22:42.634Z,90.98
2022-11-24T15:25:30.530Z,91.01
2022-11-24T15:27:57.393Z,90.73
2022-11-24T15:30:24.333Z,91.16
2022-11-24T15:32:58.741Z,91.20
2022-11-24T15:35:26.506Z,91.50
2022-11-24T15:37:52.990Z,91.16
2022-11-24T15:40:19.619Z,91.30
2022-11-24T15:42:51.332Z,91.34
2022-11-24T15:45:18.673Z,91.77
2022-11-24T15:47:45.177Z,91.63
2022-11-24T15:50:12.608Z,92.29
2022-11-24T15:52:39.950Z,92.92
2022-11-24T15:55:07.477Z,93.32
2022-11-24T15:57:34.215Z,93.68
2022-11-24T16:00:00.732Z,94.07
2022-11-24T16:02:27.232Z,93.88
2022-11-24T16:04:53.875Z,94.45
2022-11-24T16:07:20.309Z,94.37
2022-11-24T16:09:46.825Z,94.10
2022-11-24T16:12:13.262Z,93.96
2022-11-24T16:14:39.823Z,93.96
2022-11-24T16:17:06.444Z,94.52
2022-11-24T16:19:36.193Z,94.46
2022-11-24T16:22:07.854Z,95.36
2022-11-24T16:24:34.511Z,95.49
2022-11-24T16:27:01.204Z,95.56
2022-11-24T16:29:27.658Z,95.49
2022-11-24T16:31:54.441Z,95.18
2022-11-24T16:34:21.027Z,95.22
2022-11-24T16:36:47.457Z,95.34
2022-11-24T16:39:13.820Z,95.46
2022-11-24T16:41:40.519Z,95.32
2022-11-24T16:44:07.080Z,94.87
2022-11-24T16:46:33.717Z,94.44
2022-11-24T16:49:01.182Z,94.88
2022-11-24T16:51:31.528Z,94.63
2022-11-24T16:54:02.330Z,94.32
2022-11-24T16:56:29.808Z,94.92
2022-11-24T16:59:01.839Z,94.91
2022-11-24T17:01:29.884Z,94.58
2022-11-24T17:03:56.498Z,94.35
2022-11-24T17:06:23.490Z,94.15
2022-11-24T17:08:49.957Z,93.86
2022-11-24T17:11:19.124Z,94.07
2022-11-24T17:13:47.435Z,94.56
2022-11-24T17:16:16.693Z,93.57
2022-11-24T17:18:43.844Z,94.16
2022-11-24T17:21:13.780Z,94.04
2022-11-24T17:23:40.383Z,93.94
2022-11-24T17:26:10.498Z,94.09
2022-11-24T17:28:37.633Z,93.95
2022-11-24T17:31:19.761Z,94.69
2022-11-24T17:33:46.262Z,94.70
2022-11-24T17:36:12.829Z,94.89
2022-11-24T17:38:39.307Z,95.27
2022-11-24T17:41:05.899Z,95.11
2022-11-24T17:43:32.899Z,94.88
2022-11-24T17:46:01.945Z,95.23
2022-11-24T17:48:29.257Z,95.22
2022-11-24T17:51:07.844Z,95.38
2022-11-24T17:53:37.557Z,95.67
2022-11-24T17:56:05.357Z,95.40
2022-11-24T17:58:38.339Z,95.72
2022-11-24T18:01:08.073Z,95.46
2022-11-24T18:03:35.165Z,95.69
2022-11-24T18:06:08.938Z,95.66
2022-11-24T18:08:41.415Z,96.19
2022-11-24T18:11:31.761Z,96.16
2022-11-24T18:14:02.062Z,96.13
2022-11-24T18:16:32.507Z,96.13
2022-11-24T18:19:08.758Z,95.37
2022-11-24T18:21:36.641Z,95.48
2022-11-24T18:24:03.479Z,94.57
2022-11-24T18:26:30.003Z,94.77
2022-11-24T18:28:56.485Z,94.94
2022-11-24T18:31:23.226Z,94.36
2022-11-24T18:33:49.785Z,93.85
2022-11-24T18:36:18.940Z,94.02
2022-11-24T18:38:45.511Z,93.47
2022-11-24T18:41:13.621Z,93.55
2022-11-24T18:43:40.978Z,92.66
2022-11-24T18:46:11.480Z,92.89
2022-11-24T18:48:38.009Z,92.22
2022-11-24T18:51:05.015Z,92.05
2022-11-24T18:53:31.771Z,92.12
2022-11-24T18:56:08.693Z,92.19
2022-11-24T18:58:35.932Z,91.60
2022-11-24T19:01:10.208Z,91.96
2022-11-24T19:03:42.308Z,91.50
2022-11-24T19:06:15.588Z,91.45
2022-11-24T19:08:42.097Z,91.03
2022-11-24T19:11:19.501Z,91.03
2022-11-24T19:13:47.605Z,90.67
2022-11-24T19:16:15.064Z,91.38
2022-11-24T19:18:41.711Z,90.60
2022-11-24T19:21:08.350Z,91.72
2022-11-24T19:23:34.970Z,91.15
2022-11-24T19:26:05.979Z,90.34
2022-11-24T19:28:32.642Z,90.15
2022-11-24T19:31:03.493Z,89.34
2022-11-24T19:33:30.728Z,90.35
2022-11-24T19:36:10.470Z,90.16
2022-11-24T19:38:38.079Z,90.06
2022-11-24T19:44:09.962Z,89.92
2022-11-24T19:46:39.969Z,90.14
2022-11-24T19:49:10.460Z,90.39
2022-11-24T19:51:43.702Z,90.14
2022-11-24T19:54:15.182Z,90.28
2022-11-24T19:56:42.984Z,90.43
2022-11-24T19:59:15.293Z,90.13
2022-11-24T20:01:46.705Z,89.95
2022-11-24T20:04:15.553Z,90.46
2022-11-24T20:06:50.221Z,90.08
2022-11-24T20:09:20.055Z,89.71
2022-11-24T20:11:53.903Z,89.70
2022-11-24T20:14:30.837Z,90.29
2022-11-24T20:17:12.572Z,89.52
2022-11-24T20:19:42.941Z,89.08
2022-11-24T20:22:13.694Z,89.54
2022-11-24T20:24:45.884Z,88.45
2022-11-24T20:27:20.763Z,88.70
2022-11-24T20:30:01.290Z,88.86
2022-11-24T20:32:36.974Z,88.04
2022-11-24T20:35:04.172Z,87.97
2022-11-24T20:37:32.694Z,88.12
2022-11-24T20:40:02.243Z,87.08
2022-11-24T20:42:36.751Z,87.60
2022-11-24T20:45:04.363Z,87.36
2022-11-24T20:47:31.363Z,86.58
2022-11-24T20:49:58.204Z,86.63
2022-11-24T20:52:33.215Z,86.04
2022-11-24T20:55:09.349Z,86.16
2022-11-24T20:57:39.332Z,86.78
2022-11-24T21:00:11.966Z,87.06
2022-11-24T21:02:45.154Z,86.82
2022-11-24T21:05:15.031Z,87.45
2022-11-24T21:07:42.073Z,87.13
2022-11-24T21:10:10.924Z,87.10
2022-11-24T21:12:37.867Z,87.32
2022-11-24T21:15:08.328Z,87.08
2022-11-24T21:17:37.623Z,87.72
2022-11-24T21:20:06.415Z,87.73
2022-11-24T21:22:33.071Z,88.07
2022-11-24T21:25:01.910Z,88.10
2022-11-24T21:27:32.012Z,88.13
2022-11-24T21:30:02.040Z,88.54
2022-11-24T21:32:32.420Z,88.99
2022-11-24T21:35:04.616Z,88.89
2022-11-24T21:37:45.042Z,88.69
2022-11-24T21:40:15.103Z,88.93
2022-11-24T21:42:47.609Z,88.91
2022-11-24T21:45:20.966Z,89.32
2022-11-24T21:47:47.873Z,89.35
2022-11-24T21:50:19.012Z,88.91
2022-11-24T21:52:50.495Z,88.87
2022-11-24T21:55:19.827Z,89.73
2022-11-24T21:57:52.678Z,88.65
2022-11-24T22:00:20.275Z,88.89
2022-11-24T22:02:58.560Z,88.88
2022-11-24T22:05:29.094Z,89.22
2022-11-24T22:07:59.678Z,89.62
2022-11-24T22:10:28.226Z,88.96
2022-11-24T22:13:03.719Z,88.88
2022-11-24T22:15:31.998Z,89.36
2022-11-24T22:18:00.079Z,88.93
2022-11-24T22:20:34.029Z,88.99
2022-11-24T22:23:02.382Z,88.54
2022-11-24T22:25:29.082Z,89.01
2022-11-24T22:27:59.779Z,88.44
2022-11-24T22:30:42.872Z,89.41
2022-11-24T22:33:09.645Z,89.71
2022-11-24T22:35:38.418Z,89.06
2022-11-24T22:38:08.813Z,88.71
2022-11-24T22:40:36.810Z,89.51
2022-11-24T22:43:03.742Z,89.07
2022-11-24T22:45:30.373Z,89.10
2022-11-24T22:47:56.937Z,89.39
2022-11-24T22:50:23.491Z,89.64
2022-11-24T22:52:54.090Z,89.43
2022-11-24T22:55:20.811Z,89.33
2022-11-24T22:57:48.458Z,89.51
2022-11-24T23:00:21.187Z,89.46
2022-11-24T23:02:48.012Z,89.50
2022-11-24T23:05:20.480Z,89.51
2022-11-24T23:07:47.524Z,89.49
2022-11-24T23:10:14.121Z,89.56
2022-11-24T23:12:41.026Z,89.62
2022-11-24T23:15:09.845Z,90.10
2022-11-24T23:17:36.980Z,90.81
2022-11-24T23:20:04.102Z,90.55
2022-11-24T23:22:31.447Z,91.17
2022-11-24T23:24:58.684Z,91.62
2022-11-24T23:27:25.517Z,91.77
2022-11-24T23:29:52.618Z,91.90
2022-11-24T23:32:28.299Z,91.72
2022-11-24T23:34:55.270Z,91.81
2022-11-24T23:37:34.301Z,92.09
2022-11-24T23:40:14.675Z,92.90
2022-11-24T23:42:42.775Z,93.59
2022-11-24T23:45:11.365Z,94.18
2022-11-24T23:47:39.487Z,95.10
2022-11-24T23:50:09.076Z,95.92
2022-11-24T23:52:39.053Z,96.97
2022-11-24T23:55:09.089Z,97.51
2022-11-24T23:57:36.072Z,97.41
